Time;durP1;ratioP1;P1;durP2;ratioP2;P2;SDS_P1;SDS_P2;PMS_P1;PMS_P2;Temp;Humidity;BMP_temperature;BMP_pressure;BME280_temperature;BME280_humidity;BME280_pressure;Samples;Min_cycle;Max_cycle;Signal;HPM_P1;HPM_P2
2022/07/09 00:01:50;;;;;;;7.20;4.32;;;;;;;16.10;73.56;102763.31;5068449;28;20040;-73
2022/07/09 00:04:16;;;;;;;7.05;3.88;;;;;;;16.07;73.33;102761.63;5069437;28;20115;-71
2022/07/09 00:06:41;;;;;;;9.23;4.22;;;;;;;16.04;73.21;102754.50;5025527;28;1261656;-73
2022/07/09 00:09:06;;;;;;;5.13;4.15;;;;;;;16.01;73.23;102757.44;5070333;28;20036;-72
2022/07/09 00:11:32;;;;;;;7.25;4.10;;;;;;;15.95;73.84;102751.47;5074833;28;20454;-73
2022/07/09 00:13:57;;;;;;;6.18;4.18;;;;;;;15.93;73.68;102756.16;5090360;28;20043;-73
2022/07/09 00:16:23;;;;;;;4.72;3.97;;;;;;;15.87;73.58;102756.56;5073413;28;20046;-73
2022/07/09 00:18:48;;;;;;;4.57;3.70;;;;;;;15.82;73.54;102762.34;5068792;28;20135;-74
2022/07/09 00:21:13;;;;;;;6.13;4.05;;;;;;;15.76;73.74;102758.16;5070104;28;20033;-73
2022/07/09 00:23:39;;;;;;;9.20;3.70;;;;;;;15.73;73.81;102763.81;5069077;28;20052;-73
2022/07/09 00:26:04;;;;;;;6.55;4.43;;;;;;;15.69;74.27;102758.63;5078984;28;20130;-73
2022/07/09 00:28:30;;;;;;;9.35;5.50;;;;;;;15.57;76.15;102754.75;5069011;28;20040;-73
2022/07/09 00:30:55;;;;;;;5.22;4.57;;;;;;;15.55;75.19;102753.97;5058361;28;20094;-73
2022/07/09 00:33:20;;;;;;;6.95;4.72;;;;;;;15.51;75.27;102753.28;5081596;28;20073;-74
2022/07/09 00:35:46;;;;;;;10.90;6.13;;;;;;;15.46;76.24;102751.81;5087674;28;20028;-74
2022/07/09 00:38:11;;;;;;;10.40;5.90;;;;;;;15.45;75.83;102753.66;5089953;28;20114;-73
2022/07/09 00:40:37;;;;;;;8.60;5.07;;;;;;;15.45;74.66;102748.19;5081326;28;20056;-73
2022/07/09 00:43:02;;;;;;;6.43;4.75;;;;;;;15.44;74.83;102751.03;5068969;28;20032;-73
2022/07/09 00:45:28;;;;;;;9.70;5.10;;;;;;;15.40;75.65;102749.44;5074889;28;20456;-74
2022/07/09 00:47:53;;;;;;;12.52;6.20;;;;;;;15.34;76.85;102749.81;5068905;28;20043;-73
2022/07/09 00:50:19;;;;;;;7.10;4.90;;;;;;;15.28;76.10;102749.22;5068154;28;20055;-74
2022/07/09 00:52:45;;;;;;;8.57;5.63;;;;;;;15.28;76.17;102748.34;5068995;28;20032;-73
2022/07/09 00:55:11;;;;;;;9.85;5.63;;;;;;;15.22;76.97;102748.72;5069072;28;20090;-74
2022/07/09 00:57:38;;;;;;;9.50;6.32;;;;;;;15.22;76.48;102757.84;5068480;28;20067;-73
2022/07/09 01:00:04;;;;;;;9.90;6.18;;;;;;;15.20;76.01;102753.41;5068629;28;20476;-70
2022/07/09 01:02:30;;;;;;;9.05;6.40;;;;;;;15.19;76.00;102743.41;5074367;28;20118;-73
2022/07/09 01:04:55;;;;;;;8.57;5.85;;;;;;;15.18;75.49;102742.53;5089313;28;20467;-73
2022/07/09 01:07:21;;;;;;;7.93;5.85;;;;;;;15.15;75.67;102745.47;5073867;28;20044;-73
2022/07/09 01:09:46;;;;;;;10.48;6.38;;;;;;;15.17;75.72;102748.13;5069150;28;20036;-73
2022/07/09 01:12:11;;;;;;;8.85;5.75;;;;;;;15.14;75.53;102740.09;5067950;28;20048;-74
2022/07/09 01:14:37;;;;;;;9.30;6.68;;;;;;;15.11;78.84;102737.53;5068928;28;20025;-73
2022/07/09 01:17:04;;;;;;;10.80;6.68;;;;;;;15.11;75.67;102740.25;5077814;28;20119;-73
2022/07/09 01:19:31;;;;;;;8.05;6.00;;;;;;;15.08;75.83;102730.38;5089615;28;20081;-72
2022/07/09 01:21:57;;;;;;;15.40;7.68;;;;;;;15.05;76.66;102736.03;5089329;28;20067;-73
2022/07/09 01:24:24;;;;;;;9.75;5.47;;;;;;;15.01;75.73;102732.63;5089262;28;20063;-74
2022/07/09 01:26:52;;;;;;;6.57;5.22;;;;;;;14.94;76.21;102730.34;5069899;28;20037;-73
2022/07/09 01:29:17;;;;;;;9.60;5.55;;;;;;;14.92;76.38;102733.19;5069179;28;20104;-74
2022/07/09 01:31:42;;;;;;;8.48;5.65;;;;;;;14.89;76.20;102730.63;5070362;28;20417;-73
2022/07/09 01:34:08;;;;;;;8.18;4.75;;;;;;;14.90;75.37;102724.16;5088571;28;20035;-74
2022/07/09 01:36:33;;;;;;;11.02;5.57;;;;;;;14.88;76.12;102714.28;5089339;28;20064;-74
2022/07/09 01:38:59;;;;;;;10.07;5.93;;;;;;;14.84;76.06;102712.69;5071505;28;20059;-73
2022/07/09 01:41:24;;;;;;;8.10;5.40;;;;;;;14.79;76.23;102705.63;5067393;28;20025;-73
2022/07/09 01:43:50;;;;;;;7.57;5.47;;;;;;;14.76;76.26;102708.56;5068599;28;20032;-72
2022/07/09 01:46:15;;;;;;;8.80;5.72;;;;;;;14.72;76.24;102714.31;5069864;28;20043;-74
2022/07/09 01:48:42;;;;;;;7.28;5.72;;;;;;;14.68;76.39;102708.13;5088622;28;20139;-73
2022/07/09 01:51:09;;;;;;;8.05;6.43;;;;;;;14.59;78.16;102705.94;5088763;28;20246;-74
2022/07/09 01:53:35;;;;;;;11.43;6.75;;;;;;;14.56;77.70;102708.88;5087362;28;20031;-73
2022/07/09 01:56:06;;;;;;;8.02;6.00;;;;;;;14.53;77.23;102706.31;5074870;28;20436;-74
2022/07/09 01:58:31;;;;;;;8.13;5.78;;;;;;;14.51;76.65;102703.66;5050854;28;20406;-74
2022/07/09 02:00:56;;;;;;;8.82;6.03;;;;;;;14.53;76.96;102703.56;5067357;28;20032;-73
2022/07/09 02:03:22;;;;;;;9.00;5.90;;;;;;;14.50;76.59;102704.66;5094598;28;20039;-74
2022/07/09 02:05:48;;;;;;;8.25;5.93;;;;;;;14.51;76.51;102706.41;5108709;28;20048;-73
2022/07/09 02:08:13;;;;;;;6.45;5.18;;;;;;;14.48;77.29;102701.09;5075015;28;20478;-74
2022/07/09 02:10:39;;;;;;;9.10;5.70;;;;;;;14.45;78.31;102703.97;5087326;28;20102;-74
2022/07/09 02:13:04;;;;;;;9.50;6.93;;;;;;;14.39;78.57;102700.72;5067714;28;20032;-73
2022/07/09 02:15:29;;;;;;;11.20;6.97;;;;;;;14.30;79.32;102696.66;5073636;28;20047;-75
2022/07/09 02:17:55;;;;;;;8.82;6.10;;;;;;;14.28;77.63;102690.41;5069675;28;20040;-73
2022/07/09 02:20:20;;;;;;;9.52;6.18;;;;;;;14.25;77.71;102699.69;5067182;28;20336;-73
2022/07/09 02:22:46;;;;;;;9.50;6.05;;;;;;;14.20;78.54;102692.72;5068294;28;20078;-74
2022/07/09 02:25:12;;;;;;;9.93;6.43;;;;;;;14.20;78.22;102692.72;5066265;28;20423;-75
2022/07/09 02:27:37;;;;;;;13.50;7.90;;;;;;;14.16;78.03;102696.59;5067088;28;20033;-74
2022/07/09 02:30:03;;;;;;;8.73;7.20;;;;;;;14.15;78.45;102689.38;5068107;28;20035;-74
2022/07/09 02:32:28;;;;;;;14.05;7.57;;;;;;;14.13;78.34;102683.06;5079104;28;20384;-75
2022/07/09 02:34:54;;;;;;;9.73;7.18;;;;;;;14.11;79.35;102685.03;5088417;28;20028;-74
2022/07/09 02:37:19;;;;;;;9.93;7.15;;;;;;;14.09;78.65;102684.25;5077439;28;20036;-74
2022/07/09 02:39:45;;;;;;;10.35;6.57;;;;;;;14.10;77.40;102689.63;5068139;28;20404;-74
2022/07/09 02:42:10;;;;;;;13.32;6.72;;;;;;;14.07;77.47;102688.91;5065474;28;20257;-75
2022/07/09 02:44:35;;;;;;;11.82;7.07;;;;;;;14.06;77.10;102679.81;5071946;28;20472;-73
2022/07/09 02:47:01;;;;;;;9.40;7.18;;;;;;;14.04;78.15;102677.19;5082166;28;20036;-75
2022/07/09 02:49:26;;;;;;;10.93;7.30;;;;;;;14.03;78.06;102680.00;5068144;28;20068;-74
2022/07/09 02:51:52;;;;;;;11.40;6.78;;;;;;;13.98;78.57;102669.31;5067777;28;20040;-72
2022/07/09 02:54:17;;;;;;;10.32;7.28;;;;;;;13.96;77.63;102656.69;5067552;28;20194;-73
2022/07/09 02:56:43;;;;;;;10.07;6.90;;;;;;;13.93;78.19;102665.06;5060878;28;20037;-74
2022/07/09 02:59:08;;;;;;;8.60;6.68;;;;;;;13.89;78.21;102664.38;5069051;28;20052;-74
2022/07/09 03:01:34;;;;;;;12.50;7.00;;;;;;;13.88;78.17;102662.59;5069116;28;20048;-72
2022/07/09 03:03:59;;;;;;;11.30;6.85;;;;;;;13.85;78.35;102661.91;5090442;28;20368;-73
2022/07/09 03:06:24;;;;;;;9.10;6.72;;;;;;;13.81;77.74;102665.81;5088676;28;20387;-75
2022/07/09 03:08:50;;;;;;;10.50;6.93;;;;;;;13.80;77.85;102662.16;5091748;28;20501;-75
2022/07/09 03:11:16;;;;;;;10.40;6.90;;;;;;;13.76;78.33;102664.22;5084986;28;20020;-74
2022/07/09 03:13:41;;;;;;;14.85;6.75;;;;;;;13.74;77.71;102667.97;5071276;28;20048;-74
2022/07/09 03:16:07;;;;;;;9.48;6.57;;;;;;;13.72;77.74;102668.09;5070653;28;20487;-75
2022/07/09 03:18:33;;;;;;;11.15;7.13;;;;;;;13.71;77.74;102673.66;5071773;28;20111;-74
2022/07/09 03:20:58;;;;;;;11.93;7.20;;;;;;;13.69;77.59;102667.38;5086939;28;20476;-73
2022/07/09 03:23:24;;;;;;;7.25;6.38;;;;;;;13.64;78.60;102664.88;5070533;28;20117;-74
2022/07/09 03:25:49;;;;;;;10.68;7.30;;;;;;;13.63;78.29;102663.13;5070133;28;20039;-70
2022/07/09 03:28:14;;;;;;;11.75;6.47;;;;;;;13.60;78.02;102668.75;5090643;28;20036;-75
2022/07/09 03:30:40;;;;;;;10.05;6.47;;;;;;;13.57;78.92;102665.31;5082013;28;20476;-74
2022/07/09 03:33:06;;;;;;;14.68;7.85;;;;;;;13.53;78.69;102662.75;5087142;28;20028;-74
2022/07/09 03:35:31;;;;;;;11.90;7.75;;;;;;;13.47;79.08;102671.28;5085519;28;20036;-75
2022/07/09 03:37:56;;;;;;;10.82;7.22;;;;;;;13.48;78.96;102669.47;5070894;28;20519;-74
2022/07/09 03:40:22;;;;;;;10.40;6.47;;;;;;;13.48;78.61;102664.00;5070987;28;20037;-74
2022/07/09 03:42:47;;;;;;;11.13;7.45;;;;;;;13.47;79.82;102663.09;5069700;28;20099;-74
2022/07/09 03:45:13;;;;;;;10.82;7.07;;;;;;;13.45;78.93;102677.81;5068551;28;20372;-74
2022/07/09 03:47:38;;;;;;;12.45;7.75;;;;;;;13.42;78.98;102670.66;5070301;28;20044;-74
2022/07/09 03:50:04;;;;;;;10.60;7.85;;;;;;;13.42;79.21;102667.94;5070658;28;20029;-69
2022/07/09 03:52:30;;;;;;;9.52;7.03;;;;;;;13.44;79.23;102663.28;5070837;28;20107;-74
2022/07/09 03:54:55;;;;;;;9.68;7.10;;;;;;;13.47;79.28;102662.19;5069872;28;20115;-73
2022/07/09 03:57:20;;;;;;;10.60;7.47;;;;;;;13.51;78.82;102661.06;5069165;28;20072;-74
2022/07/09 03:59:46;;;;;;;11.20;8.45;;;;;;;13.51;80.45;102663.81;5069796;28;20111;-74
2022/07/09 04:02:11;;;;;;;14.10;8.18;;;;;;;13.51;80.17;102661.06;5073215;28;20047;-75
2022/07/09 04:04:37;;;;;;;11.45;8.07;;;;;;;13.55;79.61;102661.78;5090576;28;20436;-73
2022/07/09 04:07:02;;;;;;;16.35;9.25;;;;;;;13.56;80.02;102658.06;5090866;28;20044;-74
2022/07/09 04:09:28;;;;;;;14.23;9.07;;;;;;;13.53;80.73;102662.75;5075041;28;20036;-74
2022/07/09 04:11:53;;;;;;;12.13;7.88;;;;;;;13.57;80.26;102666.22;5068231;28;20483;-74
2022/07/09 04:14:19;;;;;;;12.27;8.25;;;;;;;13.61;80.06;102665.06;5070320;28;20679;-74
2022/07/09 04:16:48;;;;;;;11.30;7.38;;;;;;;13.64;79.82;102664.00;5068414;28;20044;-74
2022/07/09 04:19:13;;;;;;;11.95;7.07;;;;;;;13.67;79.59;102662.00;5070166;28;20051;-74
2022/07/09 04:21:38;;;;;;;11.82;8.13;;;;;;;13.69;79.64;102651.84;5068195;28;20103;-73
2022/07/09 04:24:04;;;;;;;13.20;7.20;;;;;;;13.72;79.95;102643.47;5069992;28;20127;-70
2022/07/09 04:26:29;;;;;;;8.13;6.60;;;;;;;13.73;79.23;102645.22;5069531;28;20086;-73
2022/07/09 04:28:55;;;;;;;12.30;7.57;;;;;;;13.78;80.13;102647.69;5069744;28;20059;-74
2022/07/09 04:31:21;;;;;;;12.30;8.05;;;;;;;13.82;79.99;102642.94;5068968;28;20036;-73
2022/07/09 04:33:47;;;;;;;10.90;6.63;;;;;;;13.88;79.62;102646.19;5102863;28;20063;-74
2022/07/09 04:36:12;;;;;;;11.25;7.32;;;;;;;13.97;79.46;102647.50;5110196;28;20573;-73
2022/07/09 04:38:38;;;;;;;8.70;7.38;;;;;;;14.01;79.18;102654.59;5110317;28;20092;-74
2022/07/09 04:41:04;;;;;;;9.13;7.15;;;;;;;14.06;79.64;102654.31;5077551;28;20040;-73
2022/07/09 04:43:29;;;;;;;9.73;7.35;;;;;;;14.11;80.32;102654.94;5069996;28;20222;-74
2022/07/09 04:45:55;;;;;;;10.02;6.88;;;;;;;14.16;79.50;102642.72;5075941;28;20046;-74
2022/07/09 04:48:20;;;;;;;9.52;7.20;;;;;;;14.28;80.40;102654.81;5069033;28;20062;-73
2022/07/09 04:50:46;;;;;;;12.38;7.85;;;;;;;14.39;80.21;102652.31;5068852;28;20472;-74
2022/07/09 04:53:11;;;;;;;11.80;8.50;;;;;;;14.49;80.67;102659.03;5051396;28;20510;-73
2022/07/09 04:55:36;;;;;;;11.00;7.60;;;;;;;14.60;80.40;102655.69;5069058;28;20583;-74
2022/07/09 04:58:02;;;;;;;12.98;9.35;;;;;;;14.68;80.80;102646.97;5068514;28;20511;-73
2022/07/09 05:00:27;;;;;;;11.45;8.38;;;;;;;14.76;81.45;102651.00;5068592;28;20432;-72
2022/07/09 05:02:52;;;;;;;15.85;10.00;;;;;;;14.89;81.60;102647.53;5078109;28;20576;-74
2022/07/09 05:05:22;;;;;;;14.82;9.45;;;;;;;15.02;81.56;102634.81;5087941;28;20545;-74
2022/07/09 05:07:47;;;;;;;14.23;9.13;;;;;;;15.15;81.79;102644.03;5068088;28;20487;-74
2022/07/09 05:10:12;;;;;;;17.52;10.27;;;;;;;15.25;81.70;102647.97;5067312;28;20098;-73
2022/07/09 05:12:38;;;;;;;12.95;10.32;;;;;;;15.36;82.44;102636.31;5068025;28;20044;-73
2022/07/09 05:15:04;;;;;;;17.42;12.38;;;;;;;15.51;81.36;102648.16;5070880;28;20024;-71
2022/07/09 05:17:33;;;;;;;18.52;13.40;;;;;;;15.63;81.74;102650.09;5075828;28;20503;-71
2022/07/09 05:19:59;;;;;;;23.30;16.23;;;;;;;15.74;82.17;102646.69;5067993;28;20040;-73
2022/07/09 05:22:24;;;;;;;28.83;19.17;;;;;;;15.81;81.83;102642.56;5066611;28;20119;-74
2022/07/09 05:24:50;;;;;;;32.45;18.67;;;;;;;15.89;81.83;102640.19;5068848;28;20043;-74
2022/07/09 05:27:15;;;;;;;29.00;18.90;;;;;;;16.00;80.81;102642.22;5066463;28;20025;-74
2022/07/09 05:29:40;;;;;;;28.33;18.42;;;;;;;16.11;80.12;102638.75;5068082;28;20040;-71
2022/07/09 05:32:06;;;;;;;26.10;19.48;;;;;;;16.25;81.24;102639.59;5085216;28;20483;-74
2022/07/09 05:34:31;;;;;;;33.15;22.35;;;;;;;16.28;81.47;102636.66;5089368;28;20471;-75
2022/07/09 05:36:57;;;;;;;35.25;24.13;;;;;;;16.33;82.97;102644.56;5088006;28;20036;-75
2022/07/09 05:39:23;;;;;;;34.70;23.98;;;;;;;16.36;82.12;102638.84;5068261;28;20108;-73
2022/07/09 05:41:48;;;;;;;34.65;22.85;;;;;;;16.43;81.47;102640.19;5067345;28;20044;-75
2022/07/09 05:44:14;;;;;;;36.85;23.73;;;;;;;16.44;81.25;102641.06;5068486;28;20413;-74
2022/07/09 05:46:40;;;;;;;37.35;24.92;;;;;;;16.46;81.43;102637.25;5067773;28;20456;-74
2022/07/09 05:49:06;;;;;;;35.97;24.13;;;;;;;16.53;81.20;102638.56;5068521;28;20028;-74
2022/07/09 05:51:32;;;;;;;35.03;23.13;;;;;;;16.62;81.21;102639.81;5068552;28;20492;-74
2022/07/09 05:53:57;;;;;;;42.25;26.13;;;;;;;16.72;82.04;102637.34;5068515;28;20037;-74
2022/07/09 05:56:22;;;;;;;35.63;23.42;;;;;;;16.86;79.86;102633.63;5070527;28;20102;-74
2022/07/09 05:58:48;;;;;;;40.35;24.58;;;;;;;17.00;80.54;102628.91;5088627;28;20038;-74
2022/07/09 06:01:13;;;;;;;36.17;24.05;;;;;;;17.13;79.18;102630.78;5075211;28;20095;-74
2022/07/09 06:03:40;;;;;;;41.08;25.50;;;;;;;17.33;81.32;102628.34;5088894;28;20024;-73
2022/07/09 06:06:05;;;;;;;41.83;25.40;;;;;;;17.52;79.50;102625.13;5088687;28;20044;-73
2022/07/09 06:08:31;;;;;;;35.00;24.17;;;;;;;17.66;78.59;102629.59;5069008;28;20468;-73
2022/07/09 06:10:57;;;;;;;36.92;24.35;;;;;;;17.75;77.55;102634.47;5067112;28;20507;-74
2022/07/09 06:13:22;;;;;;;37.45;24.25;;;;;;;17.84;76.68;102638.41;5068700;28;20572;-73
2022/07/09 06:15:48;;;;;;;34.60;24.83;;;;;;;17.94;78.34;102650.50;5067631;28;20037;-73
2022/07/09 06:18:13;;;;;;;37.45;24.35;;;;;;;18.10;77.70;102647.47;5068273;28;20048;-74
2022/07/09 06:20:39;;;;;;;33.42;23.33;;;;;;;18.35;77.47;102640.97;5068800;28;20057;-74
2022/07/09 06:23:04;;;;;;;35.70;23.08;;;;;;;18.49;76.70;102648.19;5068293;28;20047;-72
2022/07/09 06:25:30;;;;;;;40.80;24.67;;;;;;;18.48;78.21;102647.31;5066902;28;20033;-72
2022/07/09 06:27:55;;;;;;;36.40;23.60;;;;;;;18.50;77.27;102652.69;5067345;28;20035;-72
2022/07/09 06:30:21;;;;;;;33.75;22.60;;;;;;;18.60;76.46;102648.22;5067882;28;20034;-73
2022/07/09 06:32:46;;;;;;;32.47;24.02;;;;;;;18.64;77.17;102651.63;5076071;28;20048;-73
2022/07/09 06:35:11;;;;;;;31.85;21.92;;;;;;;18.71;76.54;102655.69;5091335;28;20040;-72
2022/07/09 06:37:37;;;;;;;38.25;24.05;;;;;;;18.66;76.78;102652.41;5092147;28;20036;-72
2022/07/09 06:40:03;;;;;;;30.73;21.40;;;;;;;18.72;75.88;102652.81;5079096;28;20051;-73
2022/07/09 06:42:29;;;;;;;30.55;22.42;;;;;;;18.82;77.38;102648.31;5069882;28;20041;-73
2022/07/09 06:45:06;;;;;;;36.20;22.55;;;;;;;18.98;75.72;102650.78;5077041;28;20475;-73
2022/07/09 06:47:31;;;;;;;33.42;22.42;;;;;;;19.08;75.37;102656.44;5072092;28;20048;-71
2022/07/09 06:49:57;;;;;;;35.20;22.80;;;;;;;19.22;75.28;102652.56;5071024;28;20545;-72
2022/07/09 06:52:22;;;;;;;33.88;22.83;;;;;;;19.34;74.26;102641.41;5071632;28;20040;-73
2022/07/09 06:54:47;;;;;;;30.08;21.83;;;;;;;19.46;73.60;102647.81;5071749;28;20097;-72
2022/07/09 06:57:13;;;;;;;30.92;20.02;;;;;;;19.54;73.09;102647.19;5071092;28;20484;-73
2022/07/09 06:59:39;;;;;;;31.80;20.98;;;;;;;19.67;73.61;102638.78;5070986;28;20457;-73
2022/07/09 07:02:05;;;;;;;31.05;22.42;;;;;;;19.69;74.05;102653.38;5073268;28;20028;-72
2022/07/09 07:04:30;;;;;;;32.83;23.38;;;;;;;19.71;73.82;102655.00;5090904;28;20103;-73
2022/07/09 07:06:55;;;;;;;28.77;20.40;;;;;;;19.91;73.27;102647.84;5091725;28;20052;-73
2022/07/09 07:09:21;;;;;;;31.00;22.90;;;;;;;20.09;73.71;102646.25;5091918;28;20486;-73
2022/07/09 07:11:48;;;;;;;26.33;19.92;;;;;;;20.18;71.42;102641.84;5073709;28;20032;-73
2022/07/09 07:14:15;;;;;;;30.20;21.10;;;;;;;20.26;72.98;102646.72;5071231;28;20440;-73
2022/07/09 07:16:40;;;;;;;27.88;18.55;;;;;;;20.31;71.47;102648.09;5070534;28;20062;-73
2022/07/09 07:19:05;;;;;;;25.98;18.13;;;;;;;20.43;71.73;102646.19;5071622;28;20028;-73
2022/07/09 07:21:31;;;;;;;27.92;18.25;;;;;;;20.67;71.70;102643.22;5071776;28;20116;-72
2022/07/09 07:23:56;;;;;;;27.20;19.30;;;;;;;20.79;71.50;102639.34;5071308;28;20089;-72
2022/07/09 07:26:21;;;;;;;25.23;17.75;;;;;;;20.97;71.28;102636.00;5069645;28;20028;-71
2022/07/09 07:28:48;;;;;;;25.08;16.52;;;;;;;21.13;68.70;102641.94;5070946;28;20044;-72
2022/07/09 07:31:14;;;;;;;21.42;15.88;;;;;;;21.29;69.75;102646.97;5070437;28;20032;-73
2022/07/09 07:33:39;;;;;;;20.35;16.10;;;;;;;21.30;68.85;102648.72;5086120;28;20491;-72
2022/07/09 07:36:05;;;;;;;20.77;15.73;;;;;;;21.39;67.92;102645.16;5091142;28;20123;-72
2022/07/09 07:38:30;;;;;;;22.40;17.35;;;;;;;21.55;68.85;102640.00;5072178;28;20032;-73
2022/07/09 07:40:56;;;;;;;20.58;16.23;;;;;;;21.68;68.86;102649.97;5086450;28;20082;-73
2022/07/09 07:43:21;;;;;;;25.98;15.90;;;;;;;21.75;66.40;102643.72;5069627;28;20118;-73
2022/07/09 07:45:46;;;;;;;26.15;18.63;;;;;;;21.65;67.58;102651.13;5069145;28;20345;-73
2022/07/09 07:48:13;;;;;;;21.35;16.38;;;;;;;21.70;68.40;102647.94;5070934;28;20475;-73
2022/07/09 07:50:38;;;;;;;24.27;17.80;;;;;;;21.73;67.95;102650.41;5070946;28;20095;-72
2022/07/09 07:53:07;;;;;;;20.23;16.27;;;;;;;21.67;66.08;102656.53;5070882;28;20075;-71
2022/07/09 07:55:33;;;;;;;20.65;15.52;;;;;;;21.74;66.77;102653.06;5069874;28;20033;-73
2022/07/09 07:57:59;;;;;;;22.92;16.92;;;;;;;21.89;65.86;102648.88;5068590;28;20044;-73
2022/07/09 08:00:24;;;;;;;25.83;17.63;;;;;;;21.81;66.92;102642.28;5069876;28;20089;-72
2022/07/09 08:02:50;;;;;;;22.92;17.98;;;;;;;21.79;65.28;102650.75;5078014;28;20032;-72
2022/07/09 08:05:15;;;;;;;27.77;17.35;;;;;;;21.79;67.54;102645.22;5090539;28;20039;-72
2022/07/09 08:07:41;;;;;;;24.20;17.02;;;;;;;21.83;66.07;102643.91;5090389;28;20541;-72
2022/07/09 08:10:07;;;;;;;20.55;15.85;;;;;;;21.94;66.24;102642.91;5069849;28;20083;-72
2022/07/09 08:12:33;;;;;;;23.70;17.27;;;;;;;22.22;66.94;102638.47;5069620;28;20507;-72
2022/07/09 08:14:58;;;;;;;23.65;16.80;;;;;;;22.39;65.44;102639.69;5069708;28;20047;-72
2022/07/09 08:17:24;;;;;;;25.05;17.67;;;;;;;22.55;65.05;102634.41;5070124;28;20424;-72
2022/07/09 08:19:50;;;;;;;26.27;17.90;;;;;;;22.78;63.10;102623.03;5070125;28;20456;-70
2022/07/09 08:22:15;;;;;;;24.42;16.27;;;;;;;23.03;64.28;102614.06;5069598;28;20025;-73
2022/07/09 08:24:41;;;;;;;23.23;17.73;;;;;;;23.32;62.49;102604.81;5069269;28;20028;-73
2022/07/09 08:27:06;;;;;;;25.25;17.48;;;;;;;23.70;61.85;102609.34;5067428;28;20021;-72
2022/07/09 08:29:31;;;;;;;28.02;19.42;;;;;;;23.92;60.51;102606.16;5070074;28;20047;-73
2022/07/09 08:31:57;;;;;;;25.30;17.60;;;;;;;24.38;59.20;102607.00;5070852;28;20306;-72
2022/07/09 08:34:22;;;;;;;22.40;15.45;;;;;;;24.89;58.86;102598.91;5090149;28;20375;-72
2022/07/09 08:36:47;;;;;;;27.10;17.85;;;;;;;25.14;58.33;102591.66;5083814;28;20044;-72
2022/07/09 08:39:13;;;;;;;20.55;15.38;;;;;;;25.50;55.93;102594.28;5069349;28;20039;-72
2022/07/09 08:41:38;;;;;;;21.67;14.90;;;;;;;25.70;55.68;102598.56;5068526;28;20222;-72
2022/07/09 08:44:04;;;;;;;16.88;12.93;;;;;;;25.53;56.27;102585.59;5071616;28;20442;-68
2022/07/09 08:46:31;;;;;;;19.25;14.15;;;;;;;25.62;54.69;102585.47;5075662;28;20067;-73
2022/07/09 08:49:00;;;;;;;15.82;12.52;;;;;;;25.75;54.91;102589.69;5069410;28;20105;-71
2022/07/09 08:51:26;;;;;;;16.63;11.80;;;;;;;26.01;56.16;102584.91;5069465;28;20392;-72
2022/07/09 08:53:54;;;;;;;19.75;11.50;;;;;;;25.87;52.90;102594.81;5067332;28;20075;-71
2022/07/09 08:56:19;;;;;;;17.58;12.45;;;;;;;25.54;54.71;102593.78;5067773;28;20082;-72
2022/07/09 08:58:44;;;;;;;17.10;12.35;;;;;;;25.51;57.21;102584.88;5069289;28;20036;-71
2022/07/09 09:01:15;;;;;;;17.20;10.80;;;;;;;25.41;57.12;102594.25;5068986;28;20090;-73
2022/07/09 09:03:45;;;;;;;16.42;12.35;;;;;;;25.38;55.41;102586.22;5085082;28;20047;-71
2022/07/09 09:06:12;;;;;;;16.55;11.85;;;;;;;25.34;56.25;102583.94;5089312;28;20093;-72
2022/07/09 09:08:40;;;;;;;19.73;12.32;;;;;;;25.06;54.57;102591.56;5069385;28;20044;-68
2022/07/09 09:11:12;;;;;;;17.15;9.55;;;;;;;25.01;55.70;102597.63;5068268;28;20048;-73
2022/07/09 09:13:44;;;;;;;13.43;9.82;;;;;;;24.69;55.99;102598.25;5069212;28;20122;-72
2022/07/09 09:16:11;;;;;;;12.60;8.95;;;;;;;24.39;55.86;102594.00;5068931;28;20032;-72
2022/07/09 09:18:40;;;;;;;11.82;9.27;;;;;;;24.30;56.30;102587.44;5069247;28;20024;-71
2022/07/09 09:21:07;;;;;;;13.27;8.88;;;;;;;24.18;57.91;102592.34;5068663;28;20044;-71
2022/07/09 09:23:50;;;;;;;11.77;9.10;;;;;;;24.38;57.71;102592.22;5069411;28;20044;-72
2022/07/09 09:26:19;;;;;;;11.35;8.52;;;;;;;24.34;57.46;102586.09;5067923;28;20565;-72
2022/07/09 09:28:54;;;;;;;10.38;8.20;;;;;;;24.22;56.40;102583.69;5068970;28;20506;-72
2022/07/09 09:31:22;;;;;;;16.70;8.88;;;;;;;24.05;57.58;102586.28;5071897;28;20046;-72
2022/07/09 09:33:48;;;;;;;10.88;8.40;;;;;;;23.99;59.05;102586.94;5085846;28;20044;-72
2022/07/09 09:36:38;;;;;;;13.82;9.82;;;;;;;23.89;58.31;102591.69;5086388;28;20774;-72
2022/07/09 09:39:18;;;;;;;10.98;9.07;;;;;;;23.75;59.36;102593.09;5068129;28;20382;-69
2022/07/09 09:41:46;;;;;;;14.48;9.85;;;;;;;23.70;59.22;102589.91;5067671;28;20530;-72
2022/07/09 09:44:16;;;;;;;16.05;9.63;;;;;;;23.60;59.17;102589.03;5068626;28;20021;-72
2022/07/09 09:46:43;;;;;;;13.75;9.77;;;;;;;23.45;59.55;102590.56;5068143;28;20041;-72
2022/07/09 09:49:11;;;;;;;15.02;11.98;;;;;;;23.17;60.31;102587.75;5068785;28;20509;-72
2022/07/09 09:52:06;;;;;;;15.25;11.35;;;;;;;23.09;59.99;102594.06;5068868;28;20444;-72
2022/07/09 09:54:33;;;;;;;16.17;12.30;;;;;;;22.90;60.99;102600.53;5062594;28;20044;-72
2022/07/09 09:57:00;;;;;;;16.77;11.32;;;;;;;22.74;62.14;102591.03;5066401;28;20484;-73
2022/07/09 09:59:26;;;;;;;13.55;10.85;;;;;;;22.65;61.80;102588.13;5068720;28;20025;-73
2022/07/09 10:01:51;;;;;;;17.00;13.05;;;;;;;22.73;61.52;102589.28;5068534;28;20036;-72
2022/07/09 10:04:18;;;;;;;14.10;12.60;;;;;;;22.81;61.68;102590.31;5088661;28;20066;-73
2022/07/09 10:06:44;;;;;;;14.95;10.88;;;;;;;23.00;61.60;102586.63;5088686;28;20048;-73
2022/07/09 10:09:12;;;;;;;16.75;12.10;;;;;;;23.31;61.15;102590.03;5084054;28;20120;-73
2022/07/09 10:11:45;;;;;;;17.35;11.63;;;;;;;23.44;61.02;102581.34;5071451;28;20036;-73
2022/07/09 10:14:23;;;;;;;16.10;11.68;;;;;;;23.37;61.15;102600.56;5072490;28;20082;-72
2022/07/09 10:16:48;;;;;;;13.23;9.13;;;;;;;23.04;60.63;102595.56;5072159;28;20072;-73
2022/07/09 10:19:24;;;;;;;14.05;9.45;;;;;;;22.76;61.31;102594.56;5072423;28;20079;-72
2022/07/09 10:21:52;;;;;;;10.68;8.73;;;;;;;23.27;62.52;102585.81;5072497;28;20043;-74
2022/07/09 10:24:33;;;;;;;11.15;8.82;;;;;;;23.71;62.30;102585.22;5072525;28;20444;-73
2022/07/09 10:27:10;;;;;;;13.15;7.38;;;;;;;23.96;59.90;102576.09;5071709;28;20460;-73
2022/07/09 10:29:52;;;;;;;10.95;7.03;;;;;;;23.92;59.44;102580.22;5072323;28;20480;-71
2022/07/09 10:32:25;;;;;;;;;;;;;;;23.74;58.53;102590.47;5092836;28;20047;-72
2022/07/09 10:34:56;;;;;;;8.20;7.35;;;;;;;23.49;59.52;102587.31;5092433;28;20358;-73
2022/07/09 10:37:44;;;;;;;13.15;7.07;;;;;;;23.54;60.78;102578.53;5092269;28;20043;-72
2022/07/09 10:40:10;;;;;;;7.05;5.55;;;;;;;23.95;61.24;102574.38;5087306;28;20036;-72
2022/07/09 10:42:36;;;;;;;8.18;5.22;;;;;;;24.52;57.34;102572.16;5078590;28;20387;-72
2022/07/09 10:45:01;;;;;;;10.23;5.57;;;;;;;24.78;55.42;102574.13;5071137;28;20491;-73
2022/07/09 10:47:37;;;;;;;6.97;5.20;;;;;;;25.05;54.30;102568.41;5071984;28;20086;-72
2022/07/09 10:50:07;;;;;;;7.72;4.70;;;;;;;25.30;54.43;102580.59;5072309;28;20036;-71
2022/07/09 10:52:33;;;;;;;5.38;3.70;;;;;;;25.61;54.63;102569.78;5072154;28;20123;-73
2022/07/09 10:54:59;;;;;;;7.13;4.00;;;;;;;25.49;53.32;102565.53;5071256;28;20499;-72
2022/07/09 10:57:24;;;;;;;6.32;4.30;;;;;;;25.38;54.97;102566.72;5070300;28;20072;-73
2022/07/09 10:59:50;;;;;;;5.43;3.47;;;;;;;25.85;53.65;102571.81;5070208;28;20507;-71
2022/07/09 11:02:22;;;;;;;4.78;3.47;;;;;;;26.30;53.34;102572.41;5074484;28;20036;-73
2022/07/09 11:04:52;;;;;;;8.73;3.35;;;;;;;26.66;52.47;102568.28;5078059;28;20089;-72
2022/07/09 11:07:22;;;;;;;4.93;3.00;;;;;;;26.53;51.12;102581.00;5071134;28;20047;-71
2022/07/09 11:09:48;;;;;;;4.90;2.60;;;;;;;26.05;50.46;102571.50;5071255;28;20471;-71
2022/07/09 11:12:18;;;;;;;4.82;2.30;;;;;;;25.90;51.85;102576.88;5070637;28;20043;-72
2022/07/09 11:14:48;;;;;;;6.80;2.20;;;;;;;25.69;52.64;102580.97;5071729;28;20158;-70